Time;durP1;ratioP1;P1;durP2;ratioP2;P2;SDS_P1;SDS_P2;PMS_P1;PMS_P2;Temp;Humidity;BMP_temperature;BMP_pressure;BME280_temperature;BME280_humidity;BME280_pressure;Samples;Min_cycle;Max_cycle;Signal;HPM_P1;HPM_P2
2023/10/07 00:01:52;;;;;;;14.80;6.30;;;11.00;99.90;;;;;;5019407;28;20034;-58
2023/10/07 00:04:18;;;;;;;20.13;7.25;;;11.10;99.90;;;;;;5012296;28;20026;-59
2023/10/07 00:06:45;;;;;;;13.82;6.57;;;11.10;99.90;;;;;;5022523;28;20060;-60
2023/10/07 00:09:12;;;;;;;18.35;6.10;;;11.10;99.90;;;;;;5022364;28;20108;-56
2023/10/07 00:11:38;;;;;;;13.73;6.70;;;11.10;99.90;;;;;;5016981;28;20492;-56
2023/10/07 00:14:09;;;;;;;19.33;6.18;;;10.90;99.90;;;;;;5024100;28;20124;-56
2023/10/07 00:16:36;;;;;;;13.73;6.47;;;10.90;99.90;;;;;;5024789;28;20116;-58
2023/10/07 00:19:03;;;;;;;21.50;7.60;;;11.00;99.90;;;;;;5020347;28;20383;-57
2023/10/07 00:21:52;;;;;;;18.55;6.78;;;11.00;99.90;;;;;;5021049;28;20048;-58
2023/10/07 00:24:17;;;;;;;15.02;6.30;;;11.00;99.90;;;;;;5020527;28;20031;-60
2023/10/07 00:26:47;;;;;;;18.00;7.70;;;11.00;99.90;;;;;;5019236;28;20108;-58
2023/10/07 00:29:12;;;;;;;21.80;8.02;;;11.00;99.90;;;;;;5024700;28;20401;-58
2023/10/07 00:31:40;;;;;;;17.85;7.43;;;10.90;99.90;;;;;;5024966;28;20025;-55
2023/10/07 00:34:16;;;;;;;13.93;6.68;;;10.90;99.90;;;;;;5015665;28;20034;-58
2023/10/07 00:36:42;;;;;;;14.65;6.43;;;10.90;99.90;;;;;;5019257;28;20044;-53
2023/10/07 00:39:09;;;;;;;21.88;7.35;;;10.90;99.90;;;;;;5025711;28;20026;-58
2023/10/07 00:41:46;;;;;;;15.07;6.93;;;10.90;99.90;;;;;;5019838;28;20502;-57
2023/10/07 00:44:47;;;;;;;13.68;6.10;;;10.80;99.90;;;;;;5027252;28;20017;-59
2023/10/07 00:50:09;;;;;;;16.08;6.43;;;10.70;99.90;;;;;;5019040;28;20220;-58
2023/10/07 00:52:33;;;;;;;16.95;6.90;;;10.70;99.90;;;;;;5017352;28;20088;-57
2023/10/07 01:00:18;;;;;;;14.07;6.10;;;10.70;99.90;;;;;;5020647;28;20140;-57
2023/10/07 01:02:45;;;;;;;13.35;5.57;;;10.70;99.90;;;;;;5023182;28;20068;-57
2023/10/07 01:05:26;;;;;;;17.27;6.35;;;10.80;99.90;;;;;;5025450;28;20029;-57
2023/10/07 01:07:55;;;;;;;14.75;5.57;;;10.80;99.90;;;;;;5026717;28;20036;-57
2023/10/07 01:10:31;;;;;;;17.75;6.00;;;10.80;99.90;;;;;;5020550;28;20467;-56
2023/10/07 01:13:01;;;;;;;11.60;5.18;;;10.80;99.90;;;;;;5018956;28;20041;-51
2023/10/07 01:15:29;;;;;;;22.30;5.82;;;10.90;99.90;;;;;;5017959;28;20034;-53
2023/10/07 01:18:05;;;;;;;12.85;5.57;;;10.80;99.90;;;;;;5026464;28;20110;-58
2023/10/07 01:20:35;;;;;;;11.38;5.75;;;10.80;99.90;;;;;;5022883;28;20029;-59
2023/10/07 01:23:03;;;;;;;14.98;6.20;;;10.90;99.90;;;;;;5025248;28;20045;-57
2023/10/07 01:25:35;;;;;;;16.40;6.05;;;11.00;99.90;;;;;;5018585;28;20048;-60
2023/10/07 01:28:01;;;;;;;13.98;6.55;;;10.90;99.90;;;;;;5023327;28;20525;-59
2023/10/07 01:30:29;;;;;;;17.00;6.18;;;11.00;99.90;;;;;;5024174;28;20092;-59
2023/10/07 01:33:02;;;;;;;17.75;5.57;;;11.00;99.90;;;;;;5020838;28;20026;-53
2023/10/07 01:35:32;;;;;;;16.00;6.00;;;11.00;99.90;;;;;;5021735;28;20033;-59
2023/10/07 01:38:07;;;;;;;11.80;5.72;;;11.00;99.90;;;;;;5021362;28;20026;-58
2023/10/07 01:43:29;;;;;;;10.38;5.70;;;10.90;99.90;;;;;;5034404;28;20036;-58
2023/10/07 01:45:55;;;;;;;16.25;6.18;;;11.00;99.90;;;;;;5021186;28;20034;-58
2023/10/07 01:48:21;;;;;;;13.20;5.95;;;10.90;99.90;;;;;;5018128;28;20037;-55
2023/10/07 01:50:47;;;;;;;19.10;5.90;;;10.90;99.90;;;;;;5021797;28;20091;-53
2023/10/07 01:53:13;;;;;;;18.85;6.97;;;11.00;99.90;;;;;;5020267;28;20029;-57
2023/10/07 01:55:48;;;;;;;17.27;6.70;;;10.90;99.90;;;;;;5031355;28;20025;-56
2023/10/07 01:58:15;;;;;;;16.65;6.57;;;10.90;99.90;;;;;;5027236;28;20033;-58
2023/10/07 02:00:45;;;;;;;15.30;6.78;;;10.90;99.90;;;;;;5026889;28;20017;-58
2023/10/07 02:03:22;;;;;;;15.48;7.13;;;11.00;99.90;;;;;;5025502;28;20032;-58
2023/10/07 02:05:51;;;;;;;24.63;7.47;;;11.00;99.90;;;;;;5021729;28;20168;-59
2023/10/07 02:08:25;;;;;;;19.17;7.35;;;11.10;99.90;;;;;;5026070;28;20044;-58
2023/10/07 02:10:57;;;;;;;17.42;7.20;;;11.10;99.90;;;;;;5020940;28;20080;-58
2023/10/07 02:13:24;;;;;;;18.40;7.13;;;11.10;99.90;;;;;;5027148;28;20116;-54
2023/10/07 02:15:51;;;;;;;13.50;7.85;;;11.20;99.90;;;;;;5021146;28;20785;-56
2023/10/07 02:18:18;;;;;;;22.38;7.10;;;11.20;99.90;;;;;;5027846;28;20036;-58
2023/10/07 02:23:45;;;;;;;14.82;6.60;;;11.20;99.90;;;;;;5020988;28;20400;-57
2023/10/07 02:26:19;;;;;;;18.45;7.93;;;11.20;99.90;;;;;;5022798;28;20017;-59
2023/10/07 02:28:51;;;;;;;21.33;6.78;;;11.20;99.90;;;;;;5024687;28;20022;-60
2023/10/07 02:31:20;;;;;;;21.35;8.25;;;11.20;99.90;;;;;;5024120;28;20510;-59
2023/10/07 02:33:51;;;;;;;23.65;8.15;;;11.20;99.90;;;;;;5033185;28;20529;-56
2023/10/07 02:38:57;;;;;;;18.80;8.25;;;11.10;99.90;;;;;;5020719;28;20045;-58
2023/10/07 02:41:24;;;;;;;19.52;8.00;;;11.10;99.90;;;;;;5026050;28;20416;-59
2023/10/07 02:43:50;;;;;;;15.75;7.63;;;11.10;99.90;;;;;;5022804;28;20445;-58
2023/10/07 02:46:34;;;;;;;14.95;8.02;;;11.20;99.90;;;;;;5023563;28;20105;-56
2023/10/07 02:49:09;;;;;;;15.25;7.18;;;11.20;99.90;;;;;;5023445;28;20558;-56
2023/10/07 02:51:39;;;;;;;17.88;7.60;;;11.40;99.90;;;;;;5024889;28;20046;-58
2023/10/07 02:54:21;;;;;;;24.17;7.47;;;11.40;99.90;;;;;;5023561;28;20071;-58
2023/10/07 02:59:35;;;;;;;17.73;7.38;;;11.70;99.90;;;;;;5025119;28;20389;-56
2023/10/07 03:02:12;;;;;;;20.67;7.47;;;11.80;99.90;;;;;;5022100;28;20161;-58
2023/10/07 03:04:42;;;;;;;16.63;7.38;;;11.90;99.90;;;;;;5018335;28;20032;-58
2023/10/07 03:07:15;;;;;;;21.20;8.52;;;11.80;99.90;;;;;;5019293;28;20021;-60
2023/10/07 03:12:56;;;;;;;19.60;7.43;;;12.50;99.90;;;;;;5038649;28;20032;-55
2023/10/07 03:15:40;;;;;;;14.82;7.63;;;12.40;99.90;;;;;;5029111;28;20033;-59
2023/10/07 03:18:22;;;;;;;21.75;6.97;;;12.30;99.90;;;;;;5025891;28;20025;-58
2023/10/07 03:21:00;;;;;;;21.63;7.10;;;12.40;99.90;;;;;;5025280;28;20079;-59
2023/10/07 03:23:26;;;;;;;13.30;6.82;;;12.40;99.90;;;;;;5020921;28;20574;-58
2023/10/07 03:28:36;;;;;;;16.10;6.22;;;12.40;99.90;;;;;;5025621;28;20036;-59
2023/10/07 03:31:11;;;;;;;15.40;6.40;;;12.40;99.90;;;;;;5021913;28;20036;-58
2023/10/07 03:39:00;;;;;;;17.80;6.22;;;12.40;99.90;;;;;;5024931;28;20049;-58
2023/10/07 03:41:35;;;;;;;28.45;6.57;;;12.40;99.90;;;;;;5018232;28;20061;-58
2023/10/07 03:44:02;;;;;;;19.85;6.53;;;12.50;99.90;;;;;;5026032;28;20506;-57
2023/10/07 03:46:27;;;;;;;16.10;5.82;;;12.50;99.90;;;;;;5020857;28;20029;-57
2023/10/07 03:48:55;;;;;;;19.20;8.30;;;12.50;99.90;;;;;;5020367;28;20040;-58
2023/10/07 03:51:30;;;;;;;15.65;7.10;;;12.50;99.90;;;;;;5020743;28;20013;-58
2023/10/07 03:54:00;;;;;;;16.20;6.82;;;12.50;99.90;;;;;;5020546;28;20022;-57
2023/10/07 03:56:26;;;;;;;18.23;7.13;;;12.50;99.90;;;;;;5023777;28;20033;-57
2023/10/07 03:58:53;;;;;;;23.27;7.90;;;12.50;99.90;;;;;;5023816;28;20034;-60
2023/10/07 04:01:18;;;;;;;23.83;7.15;;;12.40;99.90;;;;;;5024239;28;20013;-59
2023/10/07 04:03:48;;;;;;;14.25;7.22;;;12.40;99.90;;;;;;5015524;28;20092;-58
2023/10/07 04:06:30;;;;;;;15.70;6.88;;;12.50;99.90;;;;;;5026074;28;20029;-59
2023/10/07 04:09:05;;;;;;;17.33;7.07;;;12.40;99.90;;;;;;5026637;28;20072;-58
2023/10/07 04:11:36;;;;;;;17.25;6.85;;;12.40;99.90;;;;;;5018606;28;20083;-58
2023/10/07 04:14:19;;;;;;;17.05;6.93;;;12.40;99.90;;;;;;5019505;28;20724;-58
2023/10/07 04:16:48;;;;;;;18.27;7.30;;;12.50;99.90;;;;;;5022357;28;20033;-58
2023/10/07 04:21:42;;;;;;;17.00;7.03;;;12.40;99.90;;;;;;5020837;28;20033;-58
2023/10/07 04:24:12;;;;;;;18.65;7.35;;;12.50;99.90;;;;;;5023223;28;20096;-58
2023/10/07 04:26:47;;;;;;;17.70;7.57;;;12.40;99.90;;;;;;5025226;28;20029;-58
2023/10/07 04:29:15;;;;;;;17.50;8.07;;;12.50;99.90;;;;;;5022483;28;20026;-58
2023/10/07 04:31:51;;;;;;;15.48;8.52;;;12.50;99.90;;;;;;5020797;28;20602;-57
2023/10/07 04:34:24;;;;;;;15.82;8.43;;;12.50;99.90;;;;;;5018512;28;20112;-58
2023/10/07 04:39:29;;;;;;;18.98;8.27;;;12.50;99.90;;;;;;5023472;28;20032;-57
2023/10/07 04:42:05;;;;;;;17.00;8.43;;;12.50;99.90;;;;;;5018495;28;20695;-58
2023/10/07 04:47:29;;;;;;;23.00;7.45;;;12.60;99.90;;;;;;5019459;28;20451;-57
2023/10/07 04:52:39;;;;;;;14.88;7.53;;;12.70;99.90;;;;;;5023878;28;20132;-58
2023/10/07 04:55:13;;;;;;;20.55;7.50;;;12.70;99.90;;;;;;5024142;28;20549;-59
2023/10/07 04:57:43;;;;;;;23.38;9.18;;;12.80;99.90;;;;;;5021296;28;20079;-59
2023/10/07 05:00:47;;;;;;;17.95;7.85;;;12.80;99.90;;;;;;5024475;28;20032;-57
2023/10/07 05:03:15;;;;;;;15.77;8.23;;;12.80;99.90;;;;;;5018993;28;20121;-60
2023/10/07 05:05:44;;;;;;;23.77;9.98;;;12.90;99.90;;;;;;5018904;28;20029;-59
2023/10/07 05:08:17;;;;;;;27.85;9.50;;;13.00;99.90;;;;;;5025079;28;20022;-59
2023/10/07 05:10:50;;;;;;;21.65;9.43;;;13.00;99.90;;;;;;5021832;28;20025;-57
2023/10/07 05:13:16;;;;;;;22.02;11.43;;;13.10;99.90;;;;;;5021005;28;20036;-59
2023/10/07 05:15:42;;;;;;;18.17;9.60;;;13.20;99.90;;;;;;5020473;28;20025;-57
2023/10/07 05:18:12;;;;;;;20.90;8.90;;;13.20;99.90;;;;;;5024370;28;20082;-59
2023/10/07 05:20:42;;;;;;;18.02;10.25;;;13.20;99.90;;;;;;5020683;28;20080;-59
2023/10/07 05:23:13;;;;;;;28.13;10.43;;;13.30;99.90;;;;;;5025515;28;20017;-55
2023/10/07 05:25:48;;;;;;;20.58;9.27;;;13.30;99.90;;;;;;5020510;28;20412;-57
2023/10/07 05:28:22;;;;;;;19.23;9.25;;;13.30;99.90;;;;;;5022013;28;20060;-59
2023/10/07 05:30:51;;;;;;;22.58;9.10;;;13.30;99.90;;;;;;5020523;28;20034;-59
2023/10/07 05:33:24;;;;;;;20.67;10.30;;;13.30;99.90;;;;;;5019852;28;20017;-59
2023/10/07 05:36:00;;;;;;;24.35;10.38;;;13.30;99.90;;;;;;5026732;28;20037;-57
2023/10/07 05:38:25;;;;;;;18.33;9.60;;;13.30;99.90;;;;;;5022669;28;20032;-58
2023/10/07 05:40:59;;;;;;;24.77;9.80;;;13.30;99.90;;;;;;5028769;28;20026;-59
2023/10/07 05:43:24;;;;;;;23.27;9.67;;;13.30;99.90;;;;;;5022081;28;20549;-59
2023/10/07 05:45:50;;;;;;;19.30;8.82;;;13.30;99.90;;;;;;5026247;28;20022;-59
2023/10/07 05:48:16;;;;;;;20.50;9.85;;;13.30;99.90;;;;;;5022076;28;20049;-58
2023/10/07 05:50:41;;;;;;;20.13;8.95;;;13.30;99.90;;;;;;5020788;28;20084;-57
2023/10/07 05:53:07;;;;;;;25.35;8.65;;;13.30;99.90;;;;;;5024865;28;20466;-55
2023/10/07 05:55:36;;;;;;;25.05;9.32;;;13.30;99.90;;;;;;5027344;28;20036;-59
2023/10/07 05:58:02;;;;;;;21.05;8.48;;;13.30;99.90;;;;;;5022654;28;20091;-58
2023/10/07 06:00:31;;;;;;;15.52;7.35;;;13.20;99.90;;;;;;5028939;28;20021;-58
2023/10/07 06:02:59;;;;;;;21.95;9.13;;;13.20;99.90;;;;;;5023080;28;20025;-58
2023/10/07 06:05:27;;;;;;;25.65;10.35;;;13.20;99.90;;;;;;5020280;28;20097;-59
2023/10/07 06:07:55;;;;;;;19.35;8.43;;;13.20;99.90;;;;;;5021624;28;20034;-59
2023/10/07 06:10:22;;;;;;;17.40;7.88;;;13.20;99.90;;;;;;5028133;28;20020;-58
2023/10/07 06:12:48;;;;;;;16.52;7.60;;;13.30;99.90;;;;;;5026227;28;20113;-57
2023/10/07 06:15:13;;;;;;;15.30;8.32;;;13.20;99.90;;;;;;5026239;28;20111;-54
2023/10/07 06:17:41;;;;;;;15.63;8.30;;;13.20;99.90;;;;;;5020167;28;20484;-58
2023/10/07 06:20:14;;;;;;;19.30;7.88;;;13.30;99.90;;;;;;5016866;28;20022;-58
2023/10/07 06:22:48;;;;;;;16.50;8.68;;;13.30;99.90;;;;;;5022393;28;20026;-57
2023/10/07 06:25:17;;;;;;;19.52;8.65;;;13.30;99.90;;;;;;5019900;28;20396;-57
2023/10/07 06:27:45;;;;;;;19.95;7.53;;;13.40;99.90;;;;;;5021742;28;20036;-56
2023/10/07 06:30:20;;;;;;;17.05;8.15;;;13.40;99.90;;;;;;5024527;28;20017;-58
2023/10/07 06:32:55;;;;;;;26.38;9.68;;;13.40;99.90;;;;;;5020695;28;20037;-58
2023/10/07 06:35:23;;;;;;;22.13;9.23;;;13.50;99.90;;;;;;5022724;28;20385;-57
2023/10/07 06:37:57;;;;;;;17.13;7.28;;;13.50;99.90;;;;;;5026852;28;20096;-58
2023/10/07 06:40:29;;;;;;;21.02;8.68;;;13.60;99.90;;;;;;5024739;28;20022;-57
2023/10/07 06:42:58;;;;;;;17.35;6.78;;;13.60;99.90;;;;;;5023525;28;20038;-57
2023/10/07 06:45:29;;;;;;;16.83;8.13;;;13.70;99.90;;;;;;5027203;28;20519;-56
2023/10/07 06:47:59;;;;;;;18.85;8.45;;;13.80;99.90;;;;;;5024184;28;20061;-58
2023/10/07 06:50:27;;;;;;;18.10;7.95;;;13.80;99.90;;;;;;5021938;28;20030;-56
2023/10/07 06:52:55;;;;;;;19.25;7.75;;;13.80;99.90;;;;;;5026247;28;20388;-58
2023/10/07 06:55:21;;;;;;;19.00;7.30;;;13.90;99.90;;;;;;5025062;28;20025;-56
2023/10/07 06:57:56;;;;;;;39.78;7.97;;;13.90;99.90;;;;;;5023365;28;20029;-55
2023/10/07 07:00:23;;;;;;;12.77;7.07;;;13.90;99.90;;;;;;5022303;28;20140;-58
2023/10/07 07:02:57;;;;;;;18.70;7.03;;;14.00;99.90;;;;;;5025320;28;20047;-57
2023/10/07 07:05:24;;;;;;;14.00;6.45;;;14.10;99.90;;;;;;5019293;28;20540;-57
2023/10/07 07:07:53;;;;;;;14.88;6.82;;;14.10;99.90;;;;;;5019652;28;20472;-57
2023/10/07 07:10:27;;;;;;;10.93;5.70;;;14.20;99.90;;;;;;5015115;28;20052;-57
2023/10/07 07:13:04;;;;;;;14.70;7.43;;;14.20;99.90;;;;;;5022130;28;20033;-56
2023/10/07 07:15:36;;;;;;;15.57;6.68;;;14.30;99.90;;;;;;5019366;28;20022;-57
2023/10/07 07:18:08;;;;;;;11.43;6.80;;;14.40;99.90;;;;;;5023430;28;20084;-58
2023/10/07 07:20:48;;;;;;;12.27;6.53;;;14.40;99.90;;;;;;5017043;28;20025;-58
2023/10/07 07:23:16;;;;;;;14.68;6.13;;;14.40;99.90;;;;;;5020091;28;20034;-58
2023/10/07 07:25:43;;;;;;;15.80;6.70;;;14.50;99.90;;;;;;5019872;28;20108;-58
2023/10/07 07:28:13;;;;;;;15.30;5.82;;;14.60;99.90;;;;;;5021044;28;20484;-55
2023/10/07 07:30:39;;;;;;;27.05;11.20;;;14.70;99.90;;;;;;5021850;28;20400;-59
2023/10/07 07:33:08;;;;;;;27.08;12.27;;;14.70;99.90;;;;;;5019980;28;20021;-57
2023/10/07 07:35:40;;;;;;;17.00;7.95;;;14.80;99.90;;;;;;5017000;28;20041;-58
2023/10/07 07:38:25;;;;;;;16.58;7.28;;;14.90;99.90;;;;;;5027451;28;20026;-55
2023/10/07 07:41:01;;;;;;;15.52;6.55;;;15.10;99.90;;;;;;5018287;28;20026;-59
2023/10/07 07:43:27;;;;;;;16.60;6.45;;;15.20;99.90;;;;;;5021687;28;20022;-56
2023/10/07 07:46:05;;;;;;;13.10;6.18;;;15.30;99.90;;;;;;5017223;28;20028;-59
2023/10/07 07:48:36;;;;;;;14.13;7.10;;;15.40;99.90;;;;;;5016846;28;20551;-59
2023/10/07 07:51:01;;;;;;;18.67;6.50;;;15.50;99.90;;;;;;5021264;28;20033;-58
2023/10/07 07:53:30;;;;;;;30.23;16.17;;;15.60;99.90;;;;;;5028303;28;20105;-57
2023/10/07 07:55:58;;;;;;;25.40;12.77;;;15.60;99.90;;;;;;5022336;28;20053;-56
2023/10/07 07:58:24;;;;;;;22.85;10.95;;;15.70;99.90;;;;;;5025867;28;20071;-57
2023/10/07 08:00:58;;;;;;;12.43;6.97;;;15.80;99.90;;;;;;5017618;28;20026;-55
2023/10/07 08:03:27;;;;;;;;;;;15.80;99.90;;;;;;5023903;28;20052;-55
2023/10/07 08:05:54;;;;;;;25.15;6.97;;;15.90;99.90;;;;;;5022264;28;19909;-56
2023/10/07 08:08:25;;;;;;;13.85;6.57;;;16.00;99.90;;;;;;5029608;28;20036;-59
2023/10/07 08:10:54;;;;;;;9.48;4.85;;;16.10;99.90;;;;;;5021596;28;20095;-59
2023/10/07 08:13:24;;;;;;;17.20;5.50;;;16.20;99.90;;;;;;5019266;28;20030;-58
2023/10/07 08:15:53;;;;;;;11.43;4.78;;;16.30;99.90;;;;;;5015270;28;20092;-57
2023/10/07 08:18:31;;;;;;;9.07;4.55;;;16.40;99.90;;;;;;5024892;28;20029;-58
2023/10/07 08:21:06;;;;;;;11.57;4.90;;;16.50;99.90;;;;;;5013106;28;20033;-58
2023/10/07 08:23:40;;;;;;;8.93;4.45;;;16.60;99.90;;;;;;5017564;28;20075;-58
2023/10/07 08:26:10;;;;;;;10.95;4.45;;;16.60;99.90;;;;;;5023835;28;20491;-58
2023/10/07 08:28:43;;;;;;;14.52;4.72;;;16.70;99.90;;;;;;5017885;28;20087;-58
2023/10/07 08:31:19;;;;;;;12.90;4.38;;;16.70;99.90;;;;;;5015211;28;20034;-59
2023/10/07 08:33:53;;;;;;;15.75;4.47;;;16.80;99.90;;;;;;5021551;28;20043;-58
2023/10/07 08:36:18;;;;;;;16.40;4.55;;;16.80;99.90;;;;;;5014792;28;20124;-57
2023/10/07 08:38:45;;;;;;;9.60;4.38;;;16.70;99.90;;;;;;5020923;28;20120;-58
2023/10/07 08:41:16;;;;;;;12.82;4.53;;;16.80;99.90;;;;;;5023510;28;20132;-59
2023/10/07 08:44:03;;;;;;;14.57;4.72;;;16.80;99.90;;;;;;5014949;28;20040;-58
2023/10/07 08:46:28;;;;;;;15.65;5.40;;;16.80;99.90;;;;;;5018185;28;20324;-57
2023/10/07 08:49:04;;;;;;;12.70;4.78;;;16.90;99.90;;;;;;5015378;28;20099;-58
2023/10/07 08:51:39;;;;;;;14.80;4.75;;;16.90;99.90;;;;;;5016554;28;20038;-59
2023/10/07 08:54:11;;;;;;;11.05;4.82;;;17.00;99.90;;;;;;5022873;28;20029;-60
2023/10/07 08:56:38;;;;;;;14.50;4.50;;;17.10;99.90;;;;;;5020181;28;20030;-59
2023/10/07 08:59:12;;;;;;;12.75;4.88;;;17.20;99.90;;;;;;5020640;28;20014;-60
2023/10/07 09:01:42;;;;;;;10.45;4.50;;;17.30;99.90;;;;;;5020169;28;20507;-59
2023/10/07 09:04:07;;;;;;;10.93;4.28;;;17.40;99.90;;;;;;5020018;28;20124;-59
2023/10/07 09:06:38;;;;;;;16.42;4.60;;;17.50;99.90;;;;;;5016430;28;20128;-59
2023/10/07 09:09:07;;;;;;;11.68;4.28;;;17.60;99.90;;;;;;5013681;28;20072;-59
2023/10/07 09:11:36;;;;;;;12.60;4.60;;;17.70;99.90;;;;;;5025296;28;20075;-59
2023/10/07 09:14:10;;;;;;;8.02;3.53;;;17.70;99.90;;;;;;5027787;28;20500;-58
2023/10/07 09:16:38;;;;;;;11.43;3.83;;;17.80;99.90;;;;;;5021717;28;20038;-59
2023/10/07 09:19:10;;;;;;;8.30;3.53;;;17.80;99.90;;;;;;5026295;28;20495;-56
2023/10/07 09:21:37;;;;;;;10.57;3.60;;;17.80;99.90;;;;;;5022682;28;20030;-59
2023/10/07 09:24:04;;;;;;;10.60;3.83;;;17.80;99.90;;;;;;5028413;28;20040;-57
2023/10/07 09:26:33;;;;;;;9.77;3.90;;;17.80;99.90;;;;;;5022422;28;20569;-57
2023/10/07 09:28:58;;;;;;;13.93;3.95;;;17.90;99.90;;;;;;5031206;28;20026;-57
2023/10/07 09:31:27;;;;;;;8.85;3.78;;;18.10;99.90;;;;;;5024277;28;20049;-57
2023/10/07 09:33:55;;;;;;;12.23;3.13;;;18.30;99.90;;;;;;5024177;28;20068;-58
2023/10/07 09:41:55;;;;;;;9.10;3.78;;;18.60;99.90;;;;;;5019854;28;20522;-58
2023/10/07 09:44:30;;;;;;;8.68;3.25;;;18.60;99.90;;;;;;5021466;28;20029;-58
2023/10/07 09:46:56;;;;;;;10.23;4.35;;;18.60;99.90;;;;;;5030741;28;20061;-56
2023/10/07 09:49:25;;;;;;;9.02;3.22;;;18.70;99.90;;;;;;5026276;28;20053;-58
2023/10/07 09:52:03;;;;;;;10.05;3.42;;;18.90;99.90;;;;;;5019312;28;20377;-58
2023/10/07 09:54:47;;;;;;;10.38;3.58;;;18.90;99.90;;;;;;5021168;28;20047;-59
2023/10/07 09:57:30;;;;;;;8.40;3.45;;;18.90;99.90;;;;;;5043707;28;20034;-58
2023/10/07 10:00:44;;;;;;;8.45;2.92;;;18.90;99.90;;;;;;5023602;28;20102;-54
2023/10/07 10:03:30;;;;;;;8.18;3.08;;;19.10;99.90;;;;;;5024423;28;20044;-59
2023/10/07 10:06:16;;;;;;;7.47;3.45;;;19.10;99.90;;;;;;5022768;28;20030;-58
2023/10/07 10:08:56;;;;;;;12.68;3.53;;;19.30;99.90;;;;;;5024245;28;20030;-58
2023/10/07 10:14:16;;;;;;;6.88;3.40;;;19.60;99.90;;;;;;5019209;28;20091;-57
2023/10/07 10:16:48;;;;;;;8.75;3.22;;;19.80;99.90;;;;;;5030907;28;20040;-59
2023/10/07 10:19:29;;;;;;;11.23;3.25;;;19.80;99.90;;;;;;5027463;28;20031;-58
2023/10/07 10:21:55;;;;;;;17.52;3.55;;;19.90;99.90;;;;;;5023876;28;20060;-58
2023/10/07 10:24:29;;;;;;;12.02;3.38;;;19.90;99.90;;;;;;5024723;28;20025;-59
2023/10/07 10:27:04;;;;;;;;;;;19.80;99.90;;;;;;5019136;28;20161;-59
2023/10/07 10:29:36;;;;;;;;;;;19.80;99.90;;;;;;5025015;28;20295;-60
2023/10/07 10:32:07;;;;;;;8.77;2.85;;;19.90;99.90;;;;;;5015658;28;19996;-58
2023/10/07 10:34:33;;;;;;;7.65;3.00;;;19.80;99.90;;;;;;5021209;28;20450;-60
2023/10/07 10:36:59;;;;;;;8.65;2.92;;;19.80;99.90;;;;;;5027766;28;20036;-56
2023/10/07 10:39:31;;;;;;;6.53;2.92;;;19.90;99.90;;;;;;5018883;28;20487;-60
2023/10/07 10:42:09;;;;;;;10.52;4.25;;;20.00;99.90;;;;;;5021527;28;20508;-59
2023/10/07 10:44:39;;;;;;;6.18;2.45;;;20.10;99.90;;;;;;5012150;28;20126;-58
2023/10/07 10:47:07;;;;;;;8.95;3.13;;;20.40;99.90;;;;;;5021164;28;20403;-59
2023/10/07 10:49:35;;;;;;;8.10;3.05;;;20.50;99.90;;;;;;5022707;28;20565;-57
2023/10/07 10:52:02;;;;;;;9.00;3.28;;;20.60;99.90;;;;;;5025344;28;20063;-57
2023/10/07 10:54:28;;;;;;;7.30;2.63;;;20.60;99.90;;;;;;5020350;28;20022;-54
2023/10/07 10:56:57;;;;;;;7.63;2.80;;;20.50;99.90;;;;;;5024550;28;20391;-57
2023/10/07 10:59:43;;;;;;;8.30;2.72;;;20.70;99.90;;;;;;5022635;28;20106;-59
2023/10/07 11:02:27;;;;;;;6.80;2.42;;;20.90;99.90;;;;;;5016471;28;20022;-52
2023/10/07 11:04:54;;;;;;;7.83;2.63;;;20.80;99.90;;;;;;5015777;28;20030;-59
2023/10/07 11:07:22;;;;;;;7.50;2.90;;;21.00;99.90;;;;;;5022717;28;20463;-58
2023/10/07 11:09:49;;;;;;;9.48;3.05;;;21.30;99.90;;;;;;5026938;28;20021;-58
2023/10/07 11:12:18;;;;;;;8.43;2.78;;;21.50;99.90;;;;;;5035137;28;20034;-58
2023/10/07 11:14:47;;;;;;;8.48;2.92;;;21.40;99.90;;;;;;5020477;28;20033;-53
2023/10/07 11:17:15;;;;;;;4.20;2.72;;;21.70;99.90;;;;;;5020549;28;20033;-50
2023/10/07 11:19:43;;;;;;;6.47;2.03;;;22.10;99.90;;;;;;5018244;28;20030;-54
2023/10/07 11:22:19;;;;;;;4.97;2.20;;;22.00;99.90;;;;;;5031793;28;20387;-56
2023/10/07 11:24:46;;;;;;;5.05;1.98;;;22.10;99.90;;;;;;5029323;28;20021;-53
2023/10/07 11:27:12;;;;;;;5.75;2.28;;;22.20;99.90;;;;;;5026283;28;20389;-51
2023/10/07 11:29:38;;;;;;;9.60;2.60;;;22.10;99.90;;;;;;5015295;28;20508;-50
2023/10/07 11:32:07;;;;;;;6.57;2.50;;;22.30;99.90;;;;;;5027108;28;20030;-55
2023/10/07 11:34:45;;;;;;;7.85;2.33;;;22.50;99.90;;;;;;5020720;28;20029;-56
2023/10/07 11:37:13;;;;;;;6.03;2.22;;;22.70;99.90;;;;;;5020497;28;20554;-55
2023/10/07 11:39:45;;;;;;;4.18;2.00;;;22.90;99.90;;;;;;5021304;28;20018;-49
2023/10/07 11:42:15;;;;;;;5.60;2.60;;;22.70;99.90;;;;;;5030787;28;20387;-57
2023/10/07 11:44:41;;;;;;;5.05;1.77;;;22.70;99.90;;;;;;5019475;28;20029;-56
2023/10/07 11:47:09;;;;;;;4.88;2.30;;;22.90;99.90;;;;;;5018133;28;20526;-56
2023/10/07 11:49:34;;;;;;;7.88;1.77;;;22.90;99.90;;;;;;5027582;28;20021;-51
2023/10/07 11:52:03;;;;;;;6.20;2.22;;;23.00;99.90;;;;;;5023990;28;20083;-52
2023/10/07 11:54:31;;;;;;;11.13;2.65;;;23.20;99.90;;;;;;5029990;28;20033;-56
2023/10/07 11:56:57;;;;;;;9.18;2.30;;;23.40;99.90;;;;;;5026558;28;20366;-56
2023/10/07 11:59:23;;;;;;;7.80;2.53;;;23.40;99.90;;;;;;5021628;28;20038;-56
2023/10/07 12:01:50;;;;;;;6.97;2.20;;;23.70;99.90;;;;;;5020670;28;20403;-54
2023/10/07 12:04:16;;;;;;;7.95;2.40;;;23.50;99.90;;;;;;5027103;28;20439;-51
2023/10/07 12:06:45;;;;;;;4.25;2.35;;;23.50;99.90;;;;;;5021679;28;20503;-56
2023/10/07 12:09:12;;;;;;;5.28;2.33;;;23.60;99.90;;;;;;5018069;28;20087;-57
2023/10/07 12:11:37;;;;;;;5.80;2.58;;;23.80;99.90;;;;;;5026856;28;20036;-54
2023/10/07 12:14:03;;;;;;;4.65;1.90;;;23.90;99.90;;;;;;5029148;28;20038;-58
2023/10/07 12:16:32;;;;;;;5.90;2.15;;;24.20;99.90;;;;;;5025897;28;20036;-54
2023/10/07 12:18:58;;;;;;;5.38;2.20;;;24.20;99.90;;;;;;5024409;28;20031;-53
2023/10/07 12:21:24;;;;;;;5.05;2.45;;;24.00;99.90;;;;;;5025105;28;20109;-52
2023/10/07 12:23:49;;;;;;;4.63;2.03;;;24.20;99.90;;;;;;5029087;28;20037;-53
2023/10/07 12:26:17;;;;;;;7.20;2.75;;;24.20;99.90;;;;;;5025364;28;20033;-55
2023/10/07 12:28:44;;;;;;;5.88;2.33;;;24.10;99.90;;;;;;5018307;28;20030;-57
2023/10/07 12:31:13;;;;;;;5.78;2.70;;;24.00;99.90;;;;;;5021052;28;20021;-54
2023/10/07 12:33:39;;;;;;;4.35;2.40;;;24.20;99.90;;;;;;5025410;28;20581;-54
2023/10/07 12:36:14;;;;;;;4.55;2.33;;;24.10;99.90;;;;;;5022594;28;20104;-54
2023/10/07 12:38:40;;;;;;;7.55;2.47;;;24.00;99.90;;;;;;5019122;28;20407;-53
2023/10/07 12:41:12;;;;;;;8.60;2.05;;;24.30;99.90;;;;;;5020106;28;20040;-51
2023/10/07 12:43:37;;;;;;;9.68;2.15;;;24.40;99.90;;;;;;5021065;28;20034;-53
2023/10/07 12:46:09;;;;;;;5.80;2.60;;;24.40;99.90;;;;;;5031368;28;20041;-53
2023/10/07 12:48:40;;;;;;;5.10;2.40;;;24.50;99.90;;;;;;5025892;28;20543;-54
2023/10/07 12:51:06;;;;;;;6.05;3.50;;;24.10;99.90;;;;;;5021831;28;20083;-53
2023/10/07 12:53:35;;;;;;;6.57;2.13;;;24.50;99.90;;;;;;5021990;28;20112;-53
2023/10/07 12:56:17;;;;;;;4.97;2.65;;;24.60;99.90;;;;;;5033181;28;20029;-51
2023/10/07 12:58:45;;;;;;;5.82;2.40;;;24.50;99.90;;;;;;5025413;28;20025;-56
2023/10/07 13:01:12;;;;;;;5.32;2.45;;;24.80;99.90;;;;;;5032382;28;20026;-54
2023/10/07 13:03:44;;;;;;;5.30;2.33;;;24.80;99.90;;;;;;5024859;28;20057;-55
2023/10/07 13:06:11;;;;;;;7.15;2.30;;;25.00;99.90;;;;;;5022814;28;20040;-54
2023/10/07 13:08:40;;;;;;;6.22;2.28;;;24.70;99.90;;;;;;5014739;28;20365;-55
2023/10/07 13:11:13;;;;;;;4.97;2.40;;;24.90;99.90;;;;;;5016174;28;20041;-56
2023/10/07 13:13:45;;;;;;;7.47;2.20;;;24.60;99.90;;;;;;5017845;28;20116;-55
2023/10/07 13:16:12;;;;;;;9.05;2.70;;;24.90;99.90;;;;;;5022687;28;20048;-55
2023/10/07 13:18:41;;;;;;;9.02;2.95;;;24.70;99.90;;;;;;5017621;28;20033;-50
2023/10/07 13:21:13;;;;;;;15.45;4.00;;;24.90;99.90;;;;;;5021842;28;20022;-52
2023/10/07 13:23:44;;;;;;;7.22;3.67;;;24.70;99.90;;;;;;5021976;28;20052;-57
2023/10/07 13:26:10;;;;;;;6.45;2.30;;;24.50;99.90;;;;;;5017650;28;20029;-55
2023/10/07 13:28:38;;;;;;;6.45;2.95;;;24.00;99.90;;;;;;5023454;28;20029;-55
2023/10/07 13:31:06;;;;;;;9.48;3.17;;;24.20;99.90;;;;;;5017235;28;20397;-53
2023/10/07 13:33:32;;;;;;;8.15;2.42;;;24.30;99.90;;;;;;5021420;28;20018;-55
2023/10/07 13:35:58;;;;;;;7.40;2.85;;;24.40;99.90;;;;;;5017163;28;20446;-54
2023/10/07 13:38:24;;;;;;;15.77;5.93;;;24.10;99.90;;;;;;5012957;28;20046;-52
2023/10/07 13:40:50;;;;;;;7.43;2.80;;;24.00;99.90;;;;;;5015777;28;20112;-57
2023/10/07 13:43:15;;;;;;;11.10;5.85;;;23.80;99.90;;;;;;5016099;28;20204;-54
2023/10/07 13:45:41;;;;;;;8.05;3.55;;;23.50;99.90;;;;;;5015969;28;20144;-56
2023/10/07 13:48:07;;;;;;;9.75;3.53;;;23.70;99.90;;;;;;5016923;28;20021;-52